Weather reports worldwide

Advertisment
Wasserkuppe, Germany (10544): temperature & dewpoint: 22.01.2020 09:00:00 - 28.01.2020 09:00:00 (CET)Wasserkuppe, Germany (10544): temperature 5cm & temperature -5cm: 22.01.2020 09:00:00 - 28.01.2020 09:00:00 (CET)Wasserkuppe, Germany (10544): temperature -20cm & temperature -100cm: 22.01.2020 09:00:00 - 28.01.2020 09:00:00 (CET)Wasserkuppe, Germany (10544): wind speed & gusts: 22.01.2020 09:00:00 - 28.01.2020 09:00:00 (CET)Wasserkuppe, Germany (10544): wind direction: 22.01.2020 09:00:00 - 28.01.2020 09:00:00 (CET)Wasserkuppe, Germany (10544): visibility: 22.01.2020 09:00:00 - 28.01.2020 09:00:00 (CET)Wasserkuppe, Germany (10544): sunshine duration: 22.01.2020 09:00:00 - 28.01.2020 09:00:00 (CET)Wasserkuppe, Germany (10544): precipitation: 22.01.2020 09:00:00 - 28.01.2020 09:00:00 (CET)
Date & Time tt [°C] td [°C] tt 5cm [°C] tt -5cm [°C] tt -20cm [°C] tt -100cm [°C] ff [km/h] ff [kn] fx [km/h] fx [kn] dd vv [km] sd [min] rr [mm]
28.01.2020 09:00:00 1,1 1,1 0,9 0,2 1,0 3,0 55 30 74 40 SSW 0,5 0 0,1
28.01.2020 08:00:00 1,1 1,1 0,9 0,2 1,0 3,0 50 27 65 35 SSW 0,6 0 0,0
28.01.2020 07:00:00 0,9 0,9 0,7 0,2 1,0 3,0 42 23 69 37 SW 0,3 0 0,0
28.01.2020 06:00:00 1,1 1,1 0,9 0,2 1,0 3,0 44 24 74 40 SW 0,2 0 0,2
28.01.2020 05:00:00 1,2 1,2 1,1 0,2 1,0 3,0 56 31 80 43 SW 0,2 0 0,1
28.01.2020 04:00:00 1,1 1,1 0,9 0,2 1,0 3,0 50 27 80 43 SW 0,3 0 1,4
28.01.2020 03:00:00 0,5 0,5 0,2 0,2 1,0 3,0 55 30 75 40 SSW 0,9 0 1,0
28.01.2020 02:00:00 0,5 0,5 0,3 0,2 1,0 3,0 50 27 70 38 SSW 0,6 0 0,5
28.01.2020 01:00:00 0,8 0,8 0,6 0,2 1,0 3,0 45 25 66 35 SSW 0,3 0 0,0
28.01.2020 00:00:00 0,6 0,6 0,3 0,2 1,0 3,0 46 25 69 37 SW 0,2 0 0,0
27.01.2020 23:00:00 0,3 0,3 0,1 0,2 1,0 3,0 48 26 65 35 SSW 0,3 0 0,3
27.01.2020 22:00:00 0,2 0,2 0,1 0,2 1,0 3,0 41 22 59 32 SSW 0,4 0 1,3
27.01.2020 21:00:00 0,2 0,2 0,1 0,2 1,0 3,0 44 24 61 33 SSW 0,4 0 1,4
27.01.2020 20:00:00 0,5 0,5 0,2 0,2 1,0 3,0 43 23 59 32 SSW 0,3 0 0,7
27.01.2020 19:00:00 1,0 1,0 0,8 0,2 1,0 3,0 43 23 68 37 SSW 0,2 0 0,3
27.01.2020 18:00:00 1,2 1,2 1,0 0,2 1,0 3,0 39 21 66 36 SSW 0,3 0 0,7
27.01.2020 17:00:00 1,6 1,6 1,4 0,2 1,0 3,0 46 25 65 35 SSW 1,1 0 0,2
27.01.2020 16:00:00 1,7 1,7 1,5 0,2 1,0 3,0 45 25 64 34 SSW 0,2 0 0,1
27.01.2020 15:00:00 1,8 1,8 1,6 0,2 1,0 3,0 44 24 65 35 SSW 0,1 0 0,0
27.01.2020 14:00:00 1,7 1,7 1,5 0,2 1,0 3,0 45 24 69 38 SSW 0,1 0 0,0
27.01.2020 13:00:00 1,8 1,8 1,6 0,2 1,0 3,0 50 27 71 38 SSW 0,2 0 0,0
27.01.2020 12:00:00 1,8 1,8 1,6 0,2 1,0 3,0 47 26 70 38 SSW 0,1 0 0,0
27.01.2020 11:00:00 1,8 1,8 1,5 0,2 1,0 3,0 41 22 59 32 SSW 0,1 0 0,0
27.01.2020 10:00:00 1,7 1,7 1,4 0,2 1,0 3,0 42 23 55 30 SSW 0,1 0 0,0
27.01.2020 09:00:00 1,0 1,0 0,7 0,2 1,0 3,0 36 20 45 24 SSW 0,1 0 0,0
27.01.2020 08:00:00 1,4 1,4 1,1 0,2 1,0 3,0 35 19 50 27 SSW 0,2 0 0,0
27.01.2020 07:00:00 2,0 2,0 1,6 0,2 1,0 3,0 37 20 52 28 SSW 0,1 0 0,0
27.01.2020 06:00:00 1,6 1,6 1,2 0,2 1,0 3,0 30 16 48 26 SSW 0,1 0 0,0
27.01.2020 05:00:00 1,9 1,9 1,5 0,2 1,0 3,0 31 17 48 26 SSW 0,1 0 0,0
27.01.2020 04:00:00 2,1 2,1 1,6 0,2 1,0 3,0 30 16 41 22 SSW 0,3 0 0,0
27.01.2020 03:00:00 1,7 1,7 1,4 0,2 1,0 3,0 29 16 44 24 SW 0,1 0 0,0
27.01.2020 02:00:00 2,0 2,0 1,7 0,2 1,0 3,0 29 16 44 24 SW 0,1 0 0,0
27.01.2020 01:00:00 2,2 2,2 1,7 0,2 1,0 3,0 24 13 35 19 SW 0,1 0 0,0
27.01.2020 00:00:00 2,4 1,7 1,9 0,2 1,0 3,0 22 12 33 18 SW 14 0 0,0
26.01.2020 23:00:00 2,0 0,8 1,4 0,2 1,0 3,0 24 13 33 18 SW 30 0 0,0
26.01.2020 22:00:00 1,7 1,0 1,2 0,2 1,0 3,0 22 12 38 20 SW 27 0 0,0
26.01.2020 21:00:00 1,1 0,7 0,6 0,2 1,0 3,0 25 13 36 19 SW 12 0 0,0
26.01.2020 20:00:00 1,5 1,5 1,1 0,2 1,0 3,0 23 12 32 18 SW 0,1 0 0,0
26.01.2020 19:00:00 1,3 1,3 0,9 0,2 1,0 3,0 19 10 25 14 SSW 0,2 0 0,0
26.01.2020 18:00:00 1,7 1,6 1,3 0,2 1,0 3,0 23 12 33 18 SW 0,1 0 0,0
26.01.2020 17:00:00 1,9 1,8 1,6 0,2 1,0 3,0 22 12 31 17 SW 0,1 0 0,0
26.01.2020 16:00:00 2,4 2,1 2,0 0,2 1,0 3,0 20 11 29 16 SW 0,3 0 0,0
26.01.2020 15:00:00 2,8 1,8 2,4 0,2 1,0 3,0 23 12 32 18 SW 14 0 0,0
26.01.2020 14:00:00 3,5 2,1 3,3 0,2 1,0 3,0 24 13 30 16 SW 19 0 0,0
26.01.2020 13:00:00 3,6 1,9 2,9 0,2 1,0 3,0 24 13 34 19 S 25 0 0,0
26.01.2020 12:00:00 3,9 1,6 3,1 0,2 1,0 3,0 24 13 29 16 S 41 0 0,0
26.01.2020 11:00:00 3,5 1,5 2,4 0,2 1,0 3,0 23 13 31 17 S 31 0 0,0
26.01.2020 10:00:00 2,9 0,9 1,6 0,2 1,0 3,0 20 11 24 13 SSW 39 0 0,0
26.01.2020 09:00:00 2,0 -0,3 0,6 0,2 1,0 3,0 19 10 23 13 SW 50 0 0,0
26.01.2020 08:00:00 0,8 -1,3 -0,6 0,2 1,0 3,0 18 10 24 13 SW 46 0 0,0
26.01.2020 07:00:00 1,3 -0,9 -0,6 0,2 1,0 3,0 19 10 22 12 SW 41 0 0,0
26.01.2020 06:00:00 0,8 -1,2 -0,9 0,2 1,0 3,0 16 9 20 11 SW 37 0 0,0
26.01.2020 05:00:00 1,5 -0,7 0,2 0,2 1,0 3,0 13 7 16 8 SW 40 0 0,0
26.01.2020 04:00:00 1,7 -0,6 -0,8 0,2 1,0 3,0 13 7 14 8 WSW 38 0 0,0
26.01.2020 03:00:00 1,2 -0,8 -2,1 0,2 1,0 3,0 10 5 17 9 WSW 37 0 0,0
26.01.2020 02:00:00 2,7 -0,6 1,2 0,2 1,0 3,0 14 8 19 11 W 38 0 0,0
26.01.2020 01:00:00 2,3 -0,2 0,2 0,2 1,0 3,0 16 9 19 10 W 34 0 0,0
26.01.2020 00:00:00 1,9 1,0 0,6 0,2 1,0 3,0 16 8 18 10 W 45 0 0,0
25.01.2020 23:00:00 1,4 0,7 0,1 0,2 1,0 3,0 17 9 21 11 W 46 0 0,0
25.01.2020 22:00:00 1,8 1,2 0,6 0,2 1,1 3,0 16 9 23 12 W 46 0 0,0
25.01.2020 21:00:00 1,7 1,5 0,6 0,2 1,1 3,0 19 10 22 12 W 15 0 0,0
25.01.2020 20:00:00 2,1 1,6 0,8 0,2 1,1 3,0 19 10 24 13 W 48 0 0,0
25.01.2020 19:00:00 1,7 1,7 0,9 0,2 1,1 3,0 19 10 23 12 WSW 0,1 0 0,0
25.01.2020 18:00:00 1,8 1,3 0,3 0,2 1,1 3,0 19 10 22 12 WSW 6 0 0,0
25.01.2020 17:00:00 2,3 2,3 1,8 0,2 1,1 3,0 19 10 21 12 WSW 0,2 0 0,0
25.01.2020 16:00:00 2,5 0,6 1,5 0,2 1,1 3,0 16 9 20 11 WSW 33 26 0,0
25.01.2020 15:00:00 3,7 -7,0 2,3 0,2 1,1 3,0 16 8 21 11 WSW 70 60 0,0
25.01.2020 14:00:00 4,8 -9,8 3,7 0,2 1,1 3,0 15 8 20 11 WSW 50 60 0,0
25.01.2020 13:00:00 4,4 -8,2 2,5 0,2 1,1 3,0 16 8 20 11 W 61 58 0,0
25.01.2020 12:00:00 4,7 -10,2 2,3 0,2 1,1 3,0 16 8 23 12 W 64 60 0,0
25.01.2020 11:00:00 4,2 -11,4 2,2 0,2 1,1 3,0 18 10 23 12 W 59 60 0,0
25.01.2020 10:00:00 3,2 -8,0 1,6 0,2 1,1 3,0 13 7 21 11 W 69 60 0,0
25.01.2020 09:00:00 2,9 -3,4 1,3 0,2 1,1 3,0 13 7 21 12 WNW 64 4 0,0
25.01.2020 08:00:00 2,4 -3,6 0,7 0,2 1,1 3,0 15 8 25 14 WNW 58 0 0,0
25.01.2020 07:00:00 2,5 -9,5 0,6 0,2 1,1 3,0 14 8 29 16 WNW 69 0 0,0
25.01.2020 06:00:00 2,9 -12,7 1,1 0,2 1,1 3,0 16 9 26 14 WNW 65 0 0,0
25.01.2020 05:00:00 3,0 -12,9 1,2 0,2 1,1 3,0 15 8 22 12 WNW 73 0 0,0
25.01.2020 04:00:00 2,7 -16,5 0,9 0,2 1,1 3,0 16 8 26 14 W 67 0 0,0
25.01.2020 03:00:00 1,6 -16,0 0,1 0,2 1,1 3,0 22 12 26 14 W 75 0 0,0
25.01.2020 02:00:00 1,6 -13,7 -0,4 0,2 1,1 3,0 19 11 24 13 W 69 0 0,0
25.01.2020 01:00:00 1,7 -13,4 0,1 0,2 1,1 3,0 18 10 22 12 W 60 0 0,0
25.01.2020 00:00:00 0,5 -8,4 -1,1 0,2 1,1 3,0 17 9 22 12 W 51 0 0,0
24.01.2020 23:00:00 1,7 -6,6 -1,4 0,2 1,1 3,0 19 11 24 13 W 58 0 0,0
24.01.2020 22:00:00 0,8 -6,3 -0,9 0,2 1,1 3,0 21 11 26 14 WSW 50 0 0,0
24.01.2020 21:00:00 1,8 -5,1 -0,4 0,2 1,1 3,0 16 9 18 10 WSW 65 0 0,0
24.01.2020 20:00:00 2,1 -4,0 -1,0 0,2 1,1 3,0 12 6 18 10 W 67 0 0,0
24.01.2020 19:00:00 1,9 -8,1 -0,2 0,2 1,1 3,0 13 7 20 11 W 70 0 0,0
24.01.2020 18:00:00 0,3 -6,0 -1,5 0,2 1,1 3,0 12 6 20 11 W 48 1 0,0
24.01.2020 17:00:00 0,9 -5,0 -1,5 0,2 1,1 3,0 9 5 22 12 W 34 49 0,0
24.01.2020 16:00:00 2,9 -4,5 0,4 0,2 1,1 3,0 13 7 22 12 WSW 43 60 0,0
24.01.2020 15:00:00 3,7 -4,4 2,7 0,2 1,1 3,0 11 6 19 10 SW 35 60 0,0
24.01.2020 14:00:00 3,4 -3,0 2,4 0,3 1,1 3,0 9 5 16 9 SW 24 60 0,0
24.01.2020 13:00:00 4,6 -5,8 1,4 0,3 1,1 3,0 14 7 18 10 WSW 57 60 0,0
24.01.2020 12:00:00 2,0 -3,1 -1,8 0,3 1,1 3,0 10 5 16 9 SW 21 60 0,0
24.01.2020 11:00:00 0,4 -4,7 -2,6 0,3 1,1 3,0 6 3 14 8 S 27 60 0,0
24.01.2020 10:00:00 2,7 -7,0 -0,8 0,3 1,1 3,0 11 6 14 8 SW 60 58 0,0
24.01.2020 09:00:00 -0,2 -7,6 -3,5 0,3 1,1 3,0 11 6 13 7 SSW 63 41 0,0
24.01.2020 08:00:00 0,6 -8,4 -4,2 0,3 1,1 3,0 4 2 6 3 WSW 71 0 0,0
24.01.2020 07:00:00 0,6 -8,1 -3,6 0,3 1,1 3,0 3 2 8 5 WSW 73 0 0,0
24.01.2020 06:00:00 -2,3 -5,3 -4,8 0,3 1,1 3,0 5 3 9 5 SSW 42 0 0,0
24.01.2020 05:00:00 -1,1 -5,0 -5,1 0,3 1,1 3,0 6 4 13 7 S 51 0 0,0
24.01.2020 04:00:00 -1,2 -4,1 -4,2 0,3 1,1 3,0 9 5 13 7 S 37 0 0,0
24.01.2020 03:00:00 -1,3 -5,9 -4,2 0,3 1,1 3,0 7 4 13 7 S 43 0 0,0
24.01.2020 02:00:00 -0,6 -7,0 -3,9 0,3 1,1 3,0 9 5 16 8 S 64 0 0,0
24.01.2020 01:00:00 -0,6 -6,9 -4,4 0,3 1,1 3,0 10 5 19 10 S 55 0 0,0
24.01.2020 00:00:00 -1,6 -5,1 -4,8 0,3 1,1 3,0 9 5 21 11 SSE 33 0 0,0
23.01.2020 23:00:00 -1,6 -5,8 -4,3 0,3 1,1 3,0 12 6 19 10 S 37 0 0,0
23.01.2020 22:00:00 -0,4 -7,5 -4,4 0,3 1,1 3,0 10 6 18 10 SSE 73 0 0,0
23.01.2020 21:00:00 0,4 -6,0 -4,0 0,3 1,1 3,0 10 5 18 10 SSE 63 0 0,0
23.01.2020 20:00:00 -0,1 -2,9 -3,9 0,3 1,1 3,0 13 7 20 11 SSE 65 0 0,0
23.01.2020 19:00:00 -0,7 -5,2 -4,0 0,4 1,1 3,0 14 8 24 13 SE 70 0 0,0
23.01.2020 18:00:00 -0,9 -5,7 -4,8 0,4 1,1 3,0 14 7 22 12 SE 75 4 0,0
23.01.2020 17:00:00 -1,4 -4,0 -5,6 0,4 1,1 3,0 10 6 17 9 ESE 58 49 0,0
23.01.2020 16:00:00 -1,0 -3,3 -2,7 0,4 1,1 3,0 8 4 10 6 SE 12 60 0,0
23.01.2020 15:00:00 0,0 -2,7 -0,2 0,4 1,1 3,0 5 3 11 6 SSE 33 60 0,0
23.01.2020 14:00:00 -0,4 -1,8 -1,8 0,4 1,1 3,0 10 5 17 9 N 12 59 0,0
23.01.2020 13:00:00 -1,6 -2,9 -3,3 0,4 1,1 3,0 8 4 18 10 SSE 14 34 0,0
23.01.2020 12:00:00 -2,2 -3,2 -2,1 0,4 1,1 3,0 8 4 22 12 SSE 2,8 47 0,0
23.01.2020 11:00:00 -2,8 -3,4 -3,2 0,4 1,1 3,0 17 9 26 14 SE 1,6 12 0,0
23.01.2020 10:00:00 -3,3 -3,8 -3,1 0,4 1,2 3,0 21 11 29 16 SE 0,4 0 0,0
23.01.2020 09:00:00 -3,5 -3,9 -3,5 0,4 1,2 3,0 20 11 28 15 SE 0,4 0 0,0
23.01.2020 08:00:00 -3,5 -3,8 -3,4 0,4 1,2 3,0 18 10 25 14 SE 0,2 0 0,0
23.01.2020 07:00:00 -3,4 -3,7 -3,3 0,4 1,2 3,0 15 8 23 12 SE 0,2 0 0,0
23.01.2020 06:00:00 -3,3 -3,7 -3,1 0,4 1,2 3,0 14 8 20 11 SE 0,4 0 0,0
23.01.2020 05:00:00 -3,1 -3,2 -2,9 0,4 1,2 3,0 12 7 24 13 SE 0,1 0 0,0
23.01.2020 04:00:00 -3,2 -3,5 -3,1 0,4 1,2 3,0 17 9 22 12 SSE 0,4 0 0,0
23.01.2020 03:00:00 -2,9 -3,1 -2,7 0,4 1,2 3,0 16 9 23 13 SSE 0,3 0 0,0
23.01.2020 02:00:00 -2,4 -2,5 -2,3 0,4 1,2 3,0 13 7 19 11 ESE 0,1 0 0,0
23.01.2020 01:00:00 -2,1 -2,2 -2,2 0,4 1,2 3,0 10 6 21 11 ESE 0,1 0 0,0
23.01.2020 00:00:00 -1,9 -2,0 -1,9 0,4 1,2 3,0 18 10 27 15 NE 0,1 0 0,0
22.01.2020 23:00:00 -1,9 -2,0 -1,9 0,4 1,2 3,0 16 9 27 14 NE 0,1 0 0,0
22.01.2020 22:00:00 -2,1 -2,2 -2,1 0,4 1,2 3,0 16 9 36 20 NE 0,1 0 0,0
22.01.2020 21:00:00 -2,1 -2,2 -2,0 0,4 1,2 3,0 27 15 38 21 NNE 0,1 0 0,0
22.01.2020 20:00:00 -1,9 -2,0 -1,9 0,4 1,2 3,0 32 17 37 20 N 0,1 0 0,0
22.01.2020 19:00:00 -1,9 -2,0 -1,8 0,4 1,2 3,0 26 14 30 16 N 0,1 0 0,0
22.01.2020 18:00:00 -1,8 -1,9 -1,6 0,4 1,2 3,0 26 14 30 16 N 0,1 0 0,0
22.01.2020 17:00:00 -1,1 -1,2 -1,0 0,4 1,2 3,0 22 12 26 14 N 0,1 0 0,0
22.01.2020 16:00:00 -0,6 -0,8 -0,6 0,4 1,2 3,0 21 11 29 16 N 0,1 0 0,0
22.01.2020 15:00:00 0,4 -1,0 0,9 0,4 1,2 3,0 17 9 21 11 N 0,6 0 0,0
22.01.2020 14:00:00 1,8 1,0 2,5 0,4 1,2 3,0 16 9 29 15 NNE 0,4 0 0,0
22.01.2020 13:00:00 0,3 -2,8 0,9 0,4 1,2 3,0 24 13 36 19 NNE 11 55 0,0
22.01.2020 12:00:00 1,8 -9,8 -0,9 0,4 1,2 3,0 24 13 37 20 NNW 53 59 0,0
22.01.2020 11:00:00 -2,2 -6,3 -3,1 0,4 1,2 3,0 24 13 34 18 N 35 59 0,0
22.01.2020 10:00:00 1,9 -14,2 0,0 0,4 1,2 3,0 24 13 29 16 NNW 54 60 0,0
22.01.2020 09:00:00 1,2 -15,1 -1,8 0,4 1,2 3,0 17 9 24 13 NW 64 38 0,0

tt = temperature
td = dewpoint
tt 5cm = temperature 5cm
tt -5cm = temperature -5cm
tt -20cm = temperature -20cm
tt -100cm = temperature -100cm
ff = wind speed
fx = gusts
dd = wind direction
vv = visibility
sd = sunshine duration
rr = precipitation

Next stations